createdAt,value
2023-12-07T00:00:05.719Z,21.25
2023-12-07T00:02:32.799Z,21.13
2023-12-07T00:04:59.885Z,20.88
2023-12-07T00:07:27.002Z,20.44
2023-12-07T00:09:54.207Z,19.94
2023-12-07T00:12:21.657Z,19.56
2023-12-07T00:14:48.829Z,19.06
2023-12-07T00:17:16.089Z,18.75
2023-12-07T00:19:43.176Z,18.88
2023-12-07T00:22:10.357Z,19.50
2023-12-07T00:24:38.142Z,20.56
2023-12-07T00:27:05.248Z,22.06
2023-12-07T00:29:32.298Z,22.94
2023-12-07T00:31:59.329Z,23.75
2023-12-07T00:34:26.439Z,24.56
2023-12-07T00:36:53.669Z,25.00
2023-12-07T00:39:20.835Z,24.63
2023-12-07T00:41:47.960Z,24.00
2023-12-07T00:44:15.180Z,23.44
2023-12-07T00:46:42.239Z,22.88
2023-12-07T05:04:11.849Z,5.00
2023-12-07T05:06:38.980Z,5.81
2023-12-07T05:09:06.014Z,7.06
2023-12-07T05:11:33.074Z,7.69
2023-12-07T05:14:00.127Z,8.81
2023-12-07T05:16:27.305Z,10.06
2023-12-07T05:18:54.498Z,11.56
2023-12-07T05:21:21.598Z,12.94
2023-12-07T05:23:48.667Z,14.31
2023-12-07T05:26:16.069Z,15.38
2023-12-07T05:28:43.202Z,16.56
2023-12-07T05:31:10.421Z,17.88
2023-12-07T05:33:37.711Z,18.81
2023-12-07T05:36:04.944Z,19.94
2023-12-07T05:38:32.209Z,21.00
2023-12-07T05:41:02.444Z,21.81
2023-12-07T05:43:29.525Z,22.56
2023-12-07T05:45:56.635Z,23.31
2023-12-07T05:48:23.734Z,24.06
2023-12-07T05:50:50.827Z,24.13
2023-12-07T05:53:17.876Z,23.56
2023-12-07T05:55:44.985Z,23.31
2023-12-07T05:58:12.067Z,22.69
2023-12-07T06:00:39.167Z,22.19
2023-12-07T06:03:06.326Z,21.44
2023-12-07T06:05:33.445Z,21.00
2023-12-07T06:08:00.607Z,20.38
2023-12-07T06:10:27.681Z,19.88
2023-12-07T06:12:54.754Z,19.56
2023-12-07T06:15:21.897Z,19.06
2023-12-07T06:17:49.000Z,18.94
2023-12-07T06:20:16.339Z,19.00
2023-12-07T06:22:43.552Z,19.56
2023-12-07T06:25:10.664Z,20.81
2023-12-07T06:27:37.802Z,22.13
2023-12-07T06:30:04.870Z,23.38
2023-12-07T06:32:31.940Z,24.25
2023-12-07T06:34:59.006Z,24.44
2023-12-07T06:37:26.076Z,23.94
2023-12-07T06:39:53.121Z,23.38
2023-12-07T06:42:20.354Z,22.88
2023-12-07T06:44:47.374Z,22.31
2023-12-07T06:47:14.398Z,21.88
2023-12-07T06:49:49.973Z,21.38
2023-12-07T06:52:20.033Z,21.00
2023-12-07T06:54:47.143Z,20.69
2023-12-07T06:57:14.165Z,20.06
2023-12-07T06:59:41.223Z,19.75
2023-12-07T07:02:08.402Z,19.50
2023-12-07T07:04:35.616Z,19.19
2023-12-07T07:07:02.882Z,18.88
2023-12-07T07:09:29.983Z,18.69
2023-12-07T07:11:57.087Z,18.81
2023-12-07T07:14:24.170Z,19.69
2023-12-07T07:16:51.218Z,21.25
2023-12-07T07:19:18.329Z,22.50
2023-12-07T07:21:45.536Z,23.75
2023-12-07T07:24:12.561Z,24.13
2023-12-07T07:26:39.686Z,24.06
2023-12-07T07:29:06.814Z,23.69
2023-12-07T07:31:34.014Z,23.31
2023-12-07T07:34:01.930Z,22.81
2023-12-07T07:36:29.236Z,22.31
2023-12-07T07:38:56.314Z,21.81
2023-12-07T07:41:23.336Z,21.38
2023-12-07T07:43:50.521Z,20.88
2023-12-07T07:46:17.586Z,20.44
2023-12-07T07:48:44.740Z,20.19
2023-12-07T07:51:12.041Z,19.81
2023-12-07T07:53:39.191Z,19.50
2023-12-07T07:56:06.200Z,19.19
2023-12-07T07:58:33.277Z,18.88
2023-12-07T08:01:00.486Z,18.69
2023-12-07T08:03:27.993Z,18.94
2023-12-07T08:05:55.204Z,19.75
2023-12-07T08:08:22.449Z,21.00
2023-12-07T08:10:54.924Z,22.44
2023-12-07T08:13:23.789Z,23.50
2023-12-07T08:15:50.864Z,24.19
2023-12-07T08:18:18.025Z,24.13
2023-12-07T08:20:45.098Z,23.69
2023-12-07T08:23:12.124Z,23.25
2023-12-07T08:25:39.210Z,22.75
2023-12-07T08:28:06.369Z,22.31
2023-12-07T08:30:33.661Z,21.81
2023-12-07T08:33:00.903Z,21.31
2023-12-07T08:35:28.088Z,20.88
2023-12-07T08:37:55.164Z,20.56
2023-12-07T08:40:22.213Z,20.25
2023-12-07T08:42:51.173Z,19.88
2023-12-07T08:45:19.663Z,19.56
2023-12-07T08:47:46.908Z,19.25
2023-12-07T08:50:14.046Z,18.94
2023-12-07T08:52:45.580Z,18.63
2023-12-07T08:55:18.981Z,18.94
2023-12-07T08:57:46.021Z,19.44
2023-12-07T09:00:13.061Z,20.63
2023-12-07T09:02:46.554Z,21.69
2023-12-07T09:05:15.165Z,23.25
2023-12-07T09:07:42.251Z,24.06
2023-12-07T09:10:09.506Z,24.00
2023-12-07T09:12:38.771Z,23.75
2023-12-07T09:15:07.055Z,23.25
2023-12-07T09:17:34.137Z,22.75
2023-12-07T09:20:01.212Z,22.38
2023-12-07T09:22:35.231Z,21.94
2023-12-07T09:25:04.944Z,21.50
2023-12-07T09:27:32.056Z,21.06
2023-12-07T09:29:59.185Z,20.75
2023-12-07T09:32:33.303Z,20.44
2023-12-07T09:35:03.497Z,20.13
2023-12-07T09:37:30.708Z,19.81
2023-12-07T09:39:57.925Z,19.50
2023-12-07T09:44:26.949Z,18.81
2023-12-07T09:46:54.014Z,19.63
2023-12-07T09:49:21.196Z,21.31
2023-12-07T09:51:48.328Z,22.75
2023-12-07T09:54:15.499Z,24.44
2023-12-07T09:56:42.661Z,25.81
2023-12-07T09:59:09.775Z,26.50
2023-12-07T10:01:36.883Z,26.38
2023-12-07T10:04:04.531Z,26.19
2023-12-07T10:06:31.687Z,25.75
2023-12-07T10:08:58.767Z,25.13
2023-12-07T10:11:25.808Z,24.94
2023-12-07T10:13:52.950Z,24.50
2023-12-07T10:16:20.258Z,24.19
2023-12-07T10:18:47.765Z,23.94
2023-12-07T10:21:15.764Z,23.81
2023-12-07T10:23:43.006Z,23.63
2023-12-07T10:26:10.139Z,23.50
2023-12-07T10:28:37.292Z,23.25
2023-12-07T10:31:04.456Z,23.06
2023-12-07T10:33:31.593Z,22.81
2023-12-07T10:35:58.796Z,22.69
2023-12-07T10:38:25.929Z,22.38
2023-12-07T10:40:52.980Z,22.13
2023-12-07T10:43:20.143Z,21.81
2023-12-07T10:45:47.148Z,21.56
2023-12-07T10:48:14.316Z,21.38
2023-12-07T10:50:41.514Z,21.31
2023-12-07T10:53:08.674Z,21.25
2023-12-07T10:55:35.913Z,21.19
2023-12-07T10:58:03.084Z,21.19
2023-12-07T11:00:37.641Z,21.19
2023-12-07T11:03:11.870Z,21.19
2023-12-07T11:05:39.352Z,21.25
2023-12-07T11:08:07.428Z,21.31
2023-12-07T11:10:35.134Z,21.38
2023-12-07T11:13:02.197Z,21.63
2023-12-07T11:15:29.253Z,21.81
2023-12-07T11:17:56.522Z,22.13
2023-12-07T11:20:23.678Z,22.25
2023-12-07T11:22:51.008Z,22.56
2023-12-07T11:25:18.119Z,22.75
2023-12-07T11:27:45.312Z,23.00
2023-12-07T11:30:12.354Z,23.25
2023-12-07T11:32:39.718Z,23.50
2023-12-07T11:35:06.783Z,23.75
2023-12-07T11:37:33.906Z,24.13
2023-12-07T11:40:00.952Z,24.44
2023-12-07T11:42:28.131Z,24.75
2023-12-07T11:44:55.333Z,25.00
2023-12-07T11:47:22.523Z,25.13
2023-12-07T11:49:49.768Z,25.31
2023-12-07T11:52:16.901Z,25.50
2023-12-07T11:54:44.050Z,25.63
2023-12-07T11:57:11.096Z,25.69
2023-12-07T11:59:38.153Z,25.88
2023-12-07T12:02:05.386Z,25.94
2023-12-07T12:04:32.705Z,26.00
2023-12-07T12:06:59.857Z,26.00
2023-12-07T12:09:32.426Z,26.00
2023-12-07T12:12:00.381Z,26.13
2023-12-07T12:14:28.234Z,26.19
2023-12-07T12:16:55.352Z,26.31
2023-12-07T12:19:28.881Z,26.31
2023-12-07T12:22:01.485Z,26.25
2023-12-07T12:24:29.202Z,26.19
2023-12-07T12:26:56.253Z,26.13
2023-12-07T12:29:31.176Z,26.19
2023-12-07T12:32:00.753Z,26.19
2023-12-07T12:34:27.924Z,26.25
2023-12-07T12:36:54.988Z,26.25
2023-12-07T12:39:27.045Z,26.31
2023-12-07T12:41:59.105Z,26.31
2023-12-07T12:44:34.521Z,26.31
2023-12-07T12:47:04.145Z,26.25
2023-12-07T12:49:31.256Z,26.25
2023-12-07T12:51:58.361Z,26.25
2023-12-07T12:54:30.426Z,26.25
2023-12-07T12:56:59.919Z,26.25
2023-12-07T12:59:26.985Z,26.19
2023-12-07T13:01:54.076Z,26.13
2023-12-07T13:04:21.275Z,26.06
2023-12-07T13:06:49.329Z,25.94
2023-12-07T13:09:16.441Z,25.75
2023-12-07T13:11:43.469Z,25.56
2023-12-07T13:14:10.529Z,25.38
2023-12-07T13:16:37.621Z,25.13
2023-12-07T13:19:04.758Z,24.94
2023-12-07T13:21:31.943Z,24.75
2023-12-07T13:23:58.958Z,24.50
2023-12-07T13:26:25.980Z,24.25
2023-12-07T13:28:53.069Z,24.06
2023-12-07T13:31:20.206Z,23.75
2023-12-07T13:33:55.316Z,23.56
2023-12-07T13:36:23.824Z,23.31
2023-12-07T13:38:50.913Z,23.13
2023-12-07T13:41:17.956Z,22.88
2023-12-07T13:43:45.065Z,22.63
2023-12-07T13:46:12.212Z,22.31
2023-12-07T13:48:39.304Z,22.13
2023-12-07T13:51:06.389Z,21.75
2023-12-07T13:53:33.452Z,21.44
2023-12-07T13:56:00.496Z,21.13
2023-12-07T13:58:27.570Z,20.81
2023-12-07T14:00:54.704Z,20.44
2023-12-07T14:03:21.845Z,20.06
2023-12-07T14:05:49.013Z,19.69
2023-12-07T14:08:16.089Z,19.31
2023-12-07T14:10:43.226Z,19.00
2023-12-07T14:13:10.390Z,18.81
2023-12-07T14:15:44.467Z,19.44
2023-12-07T14:18:13.368Z,20.56
2023-12-07T14:20:52.901Z,21.75
2023-12-07T14:23:27.864Z,23.38
2023-12-07T14:25:54.963Z,24.63
2023-12-07T14:28:22.034Z,25.81
2023-12-07T14:30:49.266Z,26.38
2023-12-07T14:33:16.441Z,26.38
2023-12-07T14:35:43.642Z,26.06
2023-12-07T14:38:10.770Z,25.63
2023-12-07T14:40:37.789Z,24.81
2023-12-07T14:43:04.904Z,24.06
2023-12-07T14:45:32.019Z,23.25
2023-12-07T23:53:10.857Z,2.63
2023-12-07T23:55:37.941Z,3.56
2023-12-07T23:58:04.973Z,4.69
